KMHE/MHE METAR and TAF weather

Enter ICAO airport designator
Station Type Date Time Source
KMHE METAR 2021/06/25 03:53 UTC NOAA

KMHE 250353Z AUTO 09003KT 10SM CLR 21/16 A2987 RMK AO2 SLP107 T02110161


Station Type Date Time Source
KMHE Decoded METAR 2021/06/25 03:53 UTC NOAA

MITCHELL MUNICIPAL AIRPORT, SD, United States (KMHE) 43-46N 98-02W
Jun 24, 2021 - 11:53 PM EDT / 2021.06.25 0353 UTC
Wind: from the E (090 degrees) at 3 MPH (3 KT):0
Visibility: 10 mile(s):0
Sky conditions: clear
Temperature: 70.0 F (21.1 C)
Dew Point: 61.0 F (16.1 C)
Relative Humidity: 73%
Pressure (altimeter): 29.87 in. Hg (1011 hPa)
ob: KMHE 250353Z AUTO 09003KT 10SM CLR 21/16 A2987 RMK AO2 SLP107 T02110161
cycle: 4

Station Type Date Time Source
KMHE TAF UTC NOAA

Error!

Example: see airport list